Time;durP1;ratioP1;P1;durP2;ratioP2;P2;SDS_P1;SDS_P2;PMS_P1;PMS_P2;Temp;Humidity;BMP_temperature;BMP_pressure;BME280_temperature;BME280_humidity;BME280_pressure;Samples;Min_cycle;Max_cycle;Signal;HPM_P1;HPM_P2
2021/11/28 00:02:14;;;;;;;52.03;19.87;;;;;;;;;;4951723;29;20109;-73
2021/11/28 00:04:41;;;;;;;49.03;18.47;;;;;;;;;;4952859;29;20031;-73
2021/11/28 00:07:19;;;;;;;70.27;28.47;;;;;;;;;;4951877;29;20427;-74
2021/11/28 00:09:58;;;;;;;48.67;19.67;;;;;;;;;;4951485;28;20047;-71
2021/11/28 00:15:16;;;;;;;58.03;21.27;;;;;;;;;;4953102;28;20035;-74
2021/11/28 00:17:41;;;;;;;57.97;20.10;;;;;;;;;;4951433;28;20030;-72
2021/11/28 00:20:12;;;;;;;52.13;19.67;;;;;;;;;;4952809;28;20403;-74
2021/11/28 00:22:39;;;;;;;51.87;19.93;;;;;;;;;;4951311;29;20039;-73
2021/11/28 00:25:11;;;;;;;47.73;18.17;;;;;;;;;;4952995;28;20055;-72
2021/11/28 00:27:37;;;;;;;;;;;;;;;;;;4951786;29;20035;-73
2021/11/28 00:30:05;;;;;;;55.93;18.43;;;;;;;;;;4951526;29;19997;-73
2021/11/28 00:32:31;;;;;;;50.93;18.13;;;;;;;;;;4951258;28;20618;-72
2021/11/28 00:34:56;;;;;;;47.30;19.90;;;;;;;;;;4952522;28;20102;-72
2021/11/28 00:37:22;;;;;;;50.53;18.87;;;;;;;;;;4951657;28;20025;-74
2021/11/28 00:39:48;;;;;;;52.87;19.07;;;;;;;;;;4950987;29;20055;-74
2021/11/28 00:42:16;;;;;;;60.73;24.90;;;;;;;;;;4952631;28;20468;-73
2021/11/28 00:44:42;;;;;;;61.27;21.80;;;;;;;;;;4952603;28;20055;-73
2021/11/28 00:47:08;;;;;;;63.17;23.40;;;;;;;;;;4951382;28;20035;-72
2021/11/28 00:49:36;;;;;;;56.67;21.60;;;;;;;;;;4952288;29;20090;-71
2021/11/28 00:52:02;;;;;;;55.93;21.77;;;;;;;;;;4953194;28;20106;-71
2021/11/28 00:54:30;;;;;;;65.67;24.20;;;;;;;;;;4951865;29;20035;-72
2021/11/28 00:56:56;;;;;;;74.43;25.43;;;;;;;;;;4952395;28;20030;-72
2021/11/28 00:59:24;;;;;;;70.03;23.47;;;;;;;;;;4952784;28;20032;-73
2021/11/28 01:01:49;;;;;;;58.03;22.50;;;;;;;;;;4951370;28;20476;-73
2021/11/28 01:04:16;;;;;;;60.50;23.50;;;;;;;;;;4952464;28;20019;-73
2021/11/28 01:06:44;;;;;;;63.83;23.33;;;;;;;;;;4952512;28;20070;-73
2021/11/28 01:09:10;;;;;;;70.63;25.47;;;;;;;;;;4954115;28;20050;-72
2021/11/28 01:11:36;;;;;;;71.10;25.20;;;;;;;;;;4954694;29;20117;-73
2021/11/28 01:14:03;;;;;;;63.33;24.30;;;;;;;;;;4954476;28;20182;-71
2021/11/28 01:16:30;;;;;;;64.27;23.20;;;;;;;;;;4956158;28;20028;-72
2021/11/28 01:18:56;;;;;;;68.40;26.00;;;;;;;;;;4938803;29;20034;-73
2021/11/28 01:21:23;;;;;;;59.40;23.17;;;;;;;;;;4954691;28;20027;-72
2021/11/28 01:23:49;;;;;;;62.13;23.47;;;;;;;;;;4955995;28;20031;-73
2021/11/28 01:26:15;;;;;;;66.00;23.10;;;;;;;;;;4955915;28;20027;-72
2021/11/28 01:28:42;;;;;;;64.93;25.43;;;;;;;;;;4955595;28;20102;-74
2021/11/28 01:31:07;;;;;;;71.63;26.23;;;;;;;;;;4954500;28;20081;-72
2021/11/28 01:33:33;;;;;;;61.90;23.80;;;;;;;;;;4954176;28;20055;-72
2021/11/28 01:35:58;;;;;;;65.67;25.50;;;;;;;;;;4955736;29;20043;-75
2021/11/28 01:38:24;;;;;;;74.07;27.43;;;;;;;;;;4955568;28;20038;-74
2021/11/28 01:40:51;;;;;;;76.03;26.20;;;;;;;;;;4954276;29;20027;-73
2021/11/28 01:43:18;;;;;;;75.47;26.27;;;;;;;;;;4955510;28;20023;-73
2021/11/28 01:45:46;;;;;;;74.37;26.47;;;;;;;;;;4954361;28;20086;-72
2021/11/28 01:48:14;;;;;;;73.60;27.60;;;;;;;;;;4955651;28;20503;-74
2021/11/28 01:50:42;;;;;;;69.97;25.63;;;;;;;;;;4955518;28;20050;-72
2021/11/28 01:53:12;;;;;;;65.90;25.87;;;;;;;;;;4954237;28;20052;-73
2021/11/28 01:55:38;;;;;;;74.67;26.33;;;;;;;;;;4955721;28;20027;-73
2021/11/28 01:58:06;;;;;;;63.80;25.70;;;;;;;;;;4954065;29;20443;-73
2021/11/28 02:00:45;;;;;;;64.17;25.90;;;;;;;;;;4955281;28;20023;-73
2021/11/28 02:03:12;;;;;;;66.37;25.50;;;;;;;;;;4954056;28;20113;-73
2021/11/28 02:05:41;;;;;;;70.10;24.27;;;;;;;;;;4954680;28;20031;-71
2021/11/28 02:08:07;;;;;;;76.37;25.33;;;;;;;;;;4955072;28;20373;-71
2021/11/28 02:10:32;;;;;;;67.27;24.37;;;;;;;;;;4955662;28;20027;-72
2021/11/28 02:12:58;;;;;;;63.87;24.43;;;;;;;;;;4955025;28;20407;-72
2021/11/28 02:15:24;;;;;;;69.97;26.00;;;;;;;;;;4953495;29;20043;-72
2021/11/28 02:17:52;;;;;;;67.90;24.80;;;;;;;;;;4953643;28;20027;-73
2021/11/28 02:20:24;;;;;;;69.83;24.27;;;;;;;;;;4954623;28;20038;-72
2021/11/28 02:22:50;;;;;;;63.95;24.55;;;;;;;;;;4953514;28;20031;-73
2021/11/28 02:25:16;;;;;;;73.60;26.33;;;;;;;;;;4953634;29;20035;-73
2021/11/28 02:27:42;;;;;;;68.50;24.57;;;;;;;;;;4954754;28;20082;-72
2021/11/28 02:30:08;;;;;;;74.53;24.77;;;;;;;;;;4953686;28;20545;-72
2021/11/28 02:32:35;;;;;;;64.83;24.43;;;;;;;;;;4953184;29;20025;-71
2021/11/28 02:35:01;;;;;;;70.00;25.87;;;;;;;;;;4954610;28;20442;-72
2021/11/28 02:37:27;;;;;;;70.40;25.93;;;;;;;;;;4954889;28;20023;-72
2021/11/28 02:39:54;;;;;;;66.03;26.47;;;;;;;;;;4953308;28;20023;-73
2021/11/28 02:42:21;;;;;;;72.93;24.67;;;;;;;;;;4953357;29;20038;-74
2021/11/28 02:44:47;;;;;;;65.43;24.50;;;;;;;;;;4953342;28;20476;-73
2021/11/28 02:47:13;;;;;;;65.33;23.27;;;;;;;;;;4953076;29;20023;-72
2021/11/28 02:49:39;;;;;;;61.03;25.97;;;;;;;;;;4954410;28;20057;-72
2021/11/28 02:52:10;;;;;;;63.50;24.67;;;;;;;;;;4954465;28;20033;-72
2021/11/28 02:54:36;;;;;;;65.10;25.67;;;;;;;;;;4954562;28;20472;-73
2021/11/28 02:57:03;;;;;;;68.60;26.03;;;;;;;;;;4954361;28;20030;-73
2021/11/28 02:59:29;;;;;;;62.93;25.23;;;;;;;;;;4954408;28;20041;-72
2021/11/28 03:01:54;;;;;;;71.17;25.63;;;;;;;;;;4952965;28;20118;-72
2021/11/28 03:04:20;;;;;;;69.27;24.53;;;;;;;;;;4954015;28;20110;-73
2021/11/28 03:06:46;;;;;;;75.73;25.63;;;;;;;;;;4954299;28;20135;-73
2021/11/28 03:09:12;;;;;;;67.17;27.07;;;;;;;;;;4952604;28;20042;-72
2021/11/28 03:11:38;;;;;;;64.07;24.60;;;;;;;;;;4954224;28;20425;-72
2021/11/28 03:14:03;;;;;;;73.00;26.03;;;;;;;;;;4954006;28;20057;-73
2021/11/28 03:16:29;;;;;;;72.37;25.97;;;;;;;;;;4954043;28;20023;-73
2021/11/28 03:18:55;;;;;;;64.97;24.97;;;;;;;;;;4952663;28;20031;-72
2021/11/28 03:21:34;;;;;;;69.57;25.27;;;;;;;;;;4953718;28;20106;-72
2021/11/28 03:24:03;;;;;;;65.73;24.70;;;;;;;;;;4953574;28;20027;-72
2021/11/28 03:26:31;;;;;;;60.23;24.10;;;;;;;;;;4952368;28;20055;-72
2021/11/28 03:29:04;;;;;;;66.13;26.33;;;;;;;;;;4953525;28;20098;-71
2021/11/28 03:31:32;;;;;;;60.07;23.87;;;;;;;;;;4953300;28;20023;-73
2021/11/28 03:33:59;;;;;;;65.10;23.40;;;;;;;;;;4953213;28;20136;-72
2021/11/28 03:36:27;;;;;;;67.97;22.97;;;;;;;;;;4953581;28;20052;-73
2021/11/28 03:38:54;;;;;;;57.63;24.20;;;;;;;;;;4953583;28;20027;-71
2021/11/28 03:41:22;;;;;;;65.93;23.63;;;;;;;;;;4955070;28;20447;-73
2021/11/28 03:43:49;;;;;;;61.20;23.20;;;;;;;;;;4953601;28;20122;-73
2021/11/28 03:46:15;;;;;;;57.33;22.43;;;;;;;;;;4953530;28;20024;-72
2021/11/28 03:48:41;;;;;;;62.60;24.37;;;;;;;;;;4954531;28;20042;-71
2021/11/28 03:51:07;;;;;;;58.20;23.70;;;;;;;;;;4952185;29;20064;-72
2021/11/28 03:53:33;;;;;;;61.27;23.07;;;;;;;;;;4951977;28;20561;-72
2021/11/28 03:56:01;;;;;;;69.53;25.07;;;;;;;;;;4953273;28;20538;-72
2021/11/28 03:58:28;;;;;;;68.10;26.87;;;;;;;;;;4951975;28;20027;-72
2021/11/28 04:00:54;;;;;;;66.33;26.53;;;;;;;;;;4951856;28;20027;-72
2021/11/28 04:03:20;;;;;;;64.03;22.90;;;;;;;;;;4953212;28;20463;-72
2021/11/28 04:05:45;;;;;;;67.13;25.43;;;;;;;;;;4951863;28;20070;-72
2021/11/28 04:08:11;;;;;;;65.40;25.33;;;;;;;;;;4952979;28;20027;-71
2021/11/28 04:10:36;;;;;;;70.73;25.27;;;;;;;;;;4951667;28;20034;-72
2021/11/28 04:13:02;;;;;;;56.03;23.97;;;;;;;;;;4953099;28;20038;-72
2021/11/28 04:15:29;;;;;;;69.33;25.70;;;;;;;;;;4953496;28;20039;-70
2021/11/28 04:17:54;;;;;;;71.83;25.97;;;;;;;;;;4954844;29;20395;-71
2021/11/28 04:20:20;;;;;;;70.40;25.90;;;;;;;;;;4955071;28;20420;-73
2021/11/28 04:22:46;;;;;;;71.10;26.60;;;;;;;;;;4954062;28;20042;-73
2021/11/28 04:25:14;;;;;;;62.80;23.93;;;;;;;;;;4951649;29;20027;-73
2021/11/28 04:27:39;;;;;;;65.63;24.87;;;;;;;;;;4952952;28;20078;-73
2021/11/28 04:30:07;;;;;;;80.37;26.27;;;;;;;;;;4952555;28;20424;-73
2021/11/28 04:32:32;;;;;;;69.53;26.13;;;;;;;;;;4951298;29;20027;-73
2021/11/28 04:34:58;;;;;;;65.97;25.73;;;;;;;;;;4951606;28;20192;-72
2021/11/28 04:37:24;;;;;;;75.20;26.37;;;;;;;;;;4952688;28;20034;-73
2021/11/28 04:39:49;;;;;;;67.50;25.77;;;;;;;;;;4952876;28;20434;-72
2021/11/28 04:42:15;;;;;;;61.20;24.27;;;;;;;;;;4951434;29;20143;-72
2021/11/28 04:44:40;;;;;;;74.43;25.90;;;;;;;;;;4954153;28;20034;-71
2021/11/28 04:47:06;;;;;;;59.37;24.27;;;;;;;;;;4956349;28;20019;-74
2021/11/28 04:49:32;;;;;;;83.03;25.50;;;;;;;;;;4957359;28;20357;-73
2021/11/28 04:51:57;;;;;;;76.30;26.80;;;;;;;;;;4955120;28;20062;-74
2021/11/28 04:54:24;;;;;;;72.23;26.50;;;;;;;;;;4956533;28;20104;-71
2021/11/28 04:56:50;;;;;;;71.83;27.10;;;;;;;;;;4955262;28;20034;-72
2021/11/28 04:59:16;;;;;;;60.67;25.43;;;;;;;;;;4956421;28;20306;-72
2021/11/28 05:01:42;;;;;;;59.97;25.33;;;;;;;;;;4956200;28;20109;-72
2021/11/28 05:04:08;;;;;;;63.20;25.60;;;;;;;;;;4956273;28;20023;-72
2021/11/28 05:06:33;;;;;;;59.77;24.77;;;;;;;;;;4956174;28;20116;-73
2021/11/28 05:08:59;;;;;;;75.37;28.60;;;;;;;;;;4956184;28;20027;-72
2021/11/28 05:11:25;;;;;;;70.07;27.07;;;;;;;;;;4956743;28;20027;-73
2021/11/28 05:13:50;;;;;;;67.90;26.00;;;;;;;;;;4954887;28;20027;-73
2021/11/28 05:16:16;;;;;;;75.33;23.23;;;;;;;;;;4954585;28;20062;-73
2021/11/28 05:18:41;;;;;;;66.00;24.33;;;;;;;;;;4956229;28;20038;-72
2021/11/28 05:21:07;;;;;;;67.30;24.47;;;;;;;;;;4955981;28;20467;-72
2021/11/28 05:23:32;;;;;;;73.10;26.77;;;;;;;;;;4954816;28;20445;-72
2021/11/28 05:25:58;;;;;;;73.77;26.07;;;;;;;;;;4954565;29;20041;-73
2021/11/28 05:28:24;;;;;;;68.73;25.30;;;;;;;;;;4955746;28;20035;-72
2021/11/28 05:30:49;;;;;;;70.00;26.73;;;;;;;;;;4955661;28;20031;-71
2021/11/28 05:33:15;;;;;;;80.50;27.60;;;;;;;;;;4954004;28;20055;-71
2021/11/28 05:35:41;;;;;;;74.33;24.97;;;;;;;;;;4954360;29;20094;-72
2021/11/28 05:38:07;;;;;;;66.27;24.83;;;;;;;;;;4955454;28;20023;-73
2021/11/28 05:40:32;;;;;;;74.23;26.23;;;;;;;;;;4955024;29;20027;-72
2021/11/28 05:42:58;;;;;;;62.83;23.07;;;;;;;;;;4954322;29;20035;-72
2021/11/28 05:45:25;;;;;;;73.00;25.73;;;;;;;;;;4954429;28;20031;-72
2021/11/28 05:47:51;;;;;;;77.33;26.63;;;;;;;;;;4954003;28;20402;-74
2021/11/28 05:50:21;;;;;;;71.50;26.90;;;;;;;;;;4955681;28;20035;-72
2021/11/28 05:52:47;;;;;;;72.23;25.47;;;;;;;;;;4955718;28;20089;-73
2021/11/28 05:55:13;;;;;;;70.77;30.43;;;;;;;;;;4953739;28;20518;-72
2021/11/28 05:57:39;;;;;;;69.27;26.27;;;;;;;;;;4954100;28;20031;-73
2021/11/28 06:00:07;;;;;;;69.10;25.40;;;;;;;;;;4955729;28;20030;-71
2021/11/28 06:02:33;;;;;;;75.67;26.60;;;;;;;;;;4957819;29;20117;-73
2021/11/28 06:04:59;;;;;;;71.23;26.30;;;;;;;;;;4957592;28;20035;-72
2021/11/28 06:07:24;;;;;;;70.87;26.33;;;;;;;;;;4956252;28;20031;-71
2021/11/28 06:09:50;;;;;;;69.43;25.30;;;;;;;;;;4953860;29;20031;-71
2021/11/28 06:12:15;;;;;;;58.37;23.07;;;;;;;;;;4953482;28;20054;-73
2021/11/28 06:14:42;;;;;;;72.13;26.13;;;;;;;;;;4953785;28;20038;-73
2021/11/28 06:17:08;;;;;;;60.97;26.03;;;;;;;;;;4954725;28;20046;-73
2021/11/28 06:19:34;;;;;;;72.40;26.07;;;;;;;;;;4954905;29;20527;-72
2021/11/28 06:22:00;;;;;;;74.00;27.13;;;;;;;;;;4955395;28;20111;-73
2021/11/28 06:24:25;;;;;;;61.07;24.07;;;;;;;;;;4953779;29;20513;-73
2021/11/28 06:26:51;;;;;;;63.97;24.30;;;;;;;;;;4955588;28;20033;-73
2021/11/28 06:29:16;;;;;;;54.50;23.17;;;;;;;;;;4954529;28;20391;-73
2021/11/28 06:31:42;;;;;;;62.57;25.90;;;;;;;;;;4953557;28;20081;-73
2021/11/28 06:34:08;;;;;;;66.77;23.40;;;;;;;;;;4953287;29;20142;-74
2021/11/28 06:36:33;;;;;;;67.23;25.80;;;;;;;;;;4953390;28;20078;-73
2021/11/28 06:39:00;;;;;;;63.90;23.77;;;;;;;;;;4954650;28;20114;-73
2021/11/28 06:41:28;;;;;;;51.53;22.43;;;;;;;;;;4953600;29;20042;-73
2021/11/28 06:43:55;;;;;;;66.50;25.37;;;;;;;;;;4954688;28;20050;-73
2021/11/28 06:46:21;;;;;;;55.50;22.83;;;;;;;;;;4954533;28;20035;-73
2021/11/28 06:48:47;;;;;;;68.73;24.37;;;;;;;;;;4953194;28;20038;-73
2021/11/28 06:51:14;;;;;;;62.13;24.47;;;;;;;;;;4954463;28;20468;-73
2021/11/28 06:53:41;;;;;;;65.83;23.93;;;;;;;;;;4953211;29;20090;-74
2021/11/28 06:56:06;;;;;;;51.37;21.93;;;;;;;;;;4953017;28;20042;-73
2021/11/28 06:58:34;;;;;;;68.73;26.03;;;;;;;;;;4954191;28;20086;-72
2021/11/28 07:00:59;;;;;;;62.13;24.20;;;;;;;;;;4937014;29;20043;-73
2021/11/28 07:03:26;;;;;;;68.03;24.33;;;;;;;;;;4954039;28;20035;-73
2021/11/28 07:05:51;;;;;;;62.67;24.97;;;;;;;;;;4936499;28;20067;-72
2021/11/28 07:08:17;;;;;;;66.97;25.47;;;;;;;;;;4951925;28;20059;-73
2021/11/28 07:10:42;;;;;;;64.60;24.47;;;;;;;;;;4954039;28;20034;-72
2021/11/28 07:13:09;;;;;;;73.07;27.40;;;;;;;;;;4952742;29;20039;-73
2021/11/28 07:15:38;;;;;;;68.20;24.93;;;;;;;;;;4952677;28;20031;-73
2021/11/28 07:18:04;;;;;;;55.10;24.20;;;;;;;;;;4953457;28;20027;-73
2021/11/28 07:20:31;;;;;;;64.67;26.07;;;;;;;;;;4953912;28;20055;-72
2021/11/28 07:22:58;;;;;;;65.87;26.60;;;;;;;;;;4952567;28;20072;-72
2021/11/28 07:25:24;;;;;;;70.70;26.17;;;;;;;;;;4952279;28;20038;-73
2021/11/28 07:27:50;;;;;;;66.83;26.13;;;;;;;;;;4953714;28;20031;-72
2021/11/28 07:30:16;;;;;;;69.20;26.10;;;;;;;;;;4952273;28;20035;-73
2021/11/28 07:32:41;;;;;;;64.03;21.73;;;;;;;;;;4953379;28;20045;-72
2021/11/28 07:35:07;;;;;;;44.47;17.80;;;;;;;;;;4952493;29;20035;-73
2021/11/28 07:37:33;;;;;;;47.93;18.10;;;;;;;;;;4953799;28;20034;-73
2021/11/28 07:39:58;;;;;;;43.30;17.50;;;;;;;;;;4953553;28;20035;-73
2021/11/28 07:42:24;;;;;;;45.40;16.27;;;;;;;;;;4952087;28;20039;-73
2021/11/28 07:44:49;;;;;;;45.93;17.77;;;;;;;;;;4952154;29;20038;-73
2021/11/28 07:47:16;;;;;;;45.73;18.20;;;;;;;;;;4953177;28;20030;-73
2021/11/28 07:49:41;;;;;;;52.67;19.30;;;;;;;;;;4951977;29;20047;-73
2021/11/28 07:52:07;;;;;;;54.57;20.17;;;;;;;;;;4953391;28;20035;-73
2021/11/28 07:54:34;;;;;;;44.43;18.53;;;;;;;;;;4953865;28;20502;-71
2021/11/28 07:57:01;;;;;;;51.40;18.47;;;;;;;;;;4951578;28;20450;-74
2021/11/28 07:59:27;;;;;;;55.20;20.60;;;;;;;;;;4951362;29;20118;-72
2021/11/28 08:01:53;;;;;;;55.20;20.97;;;;;;;;;;4953112;28;20102;-72
2021/11/28 08:04:18;;;;;;;53.90;20.70;;;;;;;;;;4951814;28;20426;-72
2021/11/28 08:06:44;;;;;;;51.47;21.00;;;;;;;;;;4953002;28;20035;-73
2021/11/28 08:09:09;;;;;;;56.87;21.80;;;;;;;;;;4952721;28;20396;-72
2021/11/28 08:11:35;;;;;;;55.43;22.17;;;;;;;;;;4951267;29;20118;-73
2021/11/28 08:14:00;;;;;;;56.53;20.63;;;;;;;;;;4952874;28;20035;-72
2021/11/28 08:16:26;;;;;;;63.20;23.67;;;;;;;;;;4951238;28;20080;-73
2021/11/28 08:18:51;;;;;;;56.73;24.13;;;;;;;;;;4952809;28;20035;-74
2021/11/28 08:21:17;;;;;;;57.27;21.80;;;;;;;;;;4951554;28;20035;-71
2021/11/28 08:23:42;;;;;;;68.77;24.07;;;;;;;;;;4951563;29;20086;-72
2021/11/28 08:26:10;;;;;;;48.80;21.70;;;;;;;;;;4935187;29;20126;-73
2021/11/28 08:28:37;;;;;;;62.20;23.50;;;;;;;;;;4951556;28;20031;-73
2021/11/28 08:31:03;;;;;;;63.80;22.47;;;;;;;;;;4951552;28;20038;-74
2021/11/28 08:33:29;;;;;;;61.03;22.10;;;;;;;;;;4951353;29;20428;-72
2021/11/28 08:35:54;;;;;;;57.90;22.90;;;;;;;;;;4952665;29;20031;-72
2021/11/28 08:38:20;;;;;;;63.07;24.70;;;;;;;;;;4952233;28;20039;-72
2021/11/28 08:40:45;;;;;;;57.60;24.10;;;;;;;;;;4955388;28;20031;-73
2021/11/28 08:43:11;;;;;;;70.70;25.83;;;;;;;;;;4954940;28;20035;-72
2021/11/28 08:45:39;;;;;;;63.97;25.50;;;;;;;;;;4955259;28;20039;-73
2021/11/28 08:48:05;;;;;;;70.93;26.87;;;;;;;;;;4952770;28;20236;-72
2021/11/28 08:50:31;;;;;;;72.30;27.87;;;;;;;;;;4952245;28;20027;-73
2021/11/28 08:52:58;;;;;;;72.77;26.80;;;;;;;;;;4952084;28;20126;-72
2021/11/28 08:55:25;;;;;;;70.50;26.63;;;;;;;;;;4952329;28;20027;-75
2021/11/28 08:57:50;;;;;;;68.47;26.50;;;;;;;;;;4950824;29;20146;-72
2021/11/28 09:00:17;;;;;;;64.23;27.03;;;;;;;;;;4951846;28;20173;-72
2021/11/28 09:02:44;;;;;;;65.20;27.17;;;;;;;;;;4934861;29;20476;-73
2021/11/28 09:05:11;;;;;;;75.03;29.10;;;;;;;;;;4951079;29;20043;-74
2021/11/28 09:07:37;;;;;;;68.93;25.43;;;;;;;;;;4952123;28;20027;-73
2021/11/28 09:10:03;;;;;;;72.97;28.90;;;;;;;;;;4952406;28;20106;-74
2021/11/28 09:12:28;;;;;;;73.40;27.53;;;;;;;;;;4950572;28;20058;-73
2021/11/28 09:14:54;;;;;;;80.03;30.83;;;;;;;;;;4952020;28;20031;-72
2021/11/28 09:17:19;;;;;;;96.13;41.73;;;;;;;;;;4951549;28;20516;-72
2021/11/28 09:22:12;;;;;;;75.27;29.57;;;;;;;;;;4950659;29;20117;-74
2021/11/28 09:24:37;;;;;;;65.10;25.50;;;;;;;;;;4951907;28;20027;-73
2021/11/28 09:27:13;;;;;;;74.13;28.37;;;;;;;;;;4950754;28;20548;-74
2021/11/28 09:29:45;;;;;;;71.63;27.90;;;;;;;;;;4951469;28;20039;-72
2021/11/28 09:32:13;;;;;;;82.95;31.80;;;;;;;;;;4953901;28;20050;-72
2021/11/28 09:34:39;;;;;;;73.70;28.57;;;;;;;;;;4954208;28;20082;-73
2021/11/28 09:37:08;;;;;;;69.67;28.70;;;;;;;;;;4955399;28;20020;-72
2021/11/28 09:39:34;;;;;;;76.13;30.37;;;;;;;;;;4969984;28;20023;-72
2021/11/28 09:42:06;;;;;;;75.50;28.83;;;;;;;;;;4955401;28;20733;-72
2021/11/28 09:44:35;;;;;;;84.53;28.87;;;;;;;;;;4954115;28;20034;-73
2021/11/28 09:47:01;;;;;;;79.60;30.67;;;;;;;;;;4954206;29;20071;-73
2021/11/28 09:49:30;;;;;;;69.17;27.70;;;;;;;;;;4954224;28;20035;-73
2021/11/28 09:52:00;;;;;;;72.57;29.00;;;;;;;;;;4954746;28;20027;-75
2021/11/28 09:54:27;;;;;;;76.50;30.57;;;;;;;;;;4955477;29;20045;-72
2021/11/28 09:56:53;;;;;;;81.17;30.17;;;;;;;;;;4955578;28;20053;-72
2021/11/28 09:59:19;;;;;;;76.83;29.20;;;;;;;;;;4954055;28;20722;-72
2021/11/28 10:01:45;;;;;;;73.73;29.07;;;;;;;;;;4954954;28;20037;-73
2021/11/28 10:04:10;;;;;;;87.27;28.97;;;;;;;;;;4953564;28;20110;-72
2021/11/28 10:06:36;;;;;;;79.97;29.33;;;;;;;;;;4953568;28;20039;-73
2021/11/28 10:09:07;;;;;;;82.43;30.17;;;;;;;;;;4954783;28;20340;-73
2021/11/28 10:11:51;;;;;;;78.20;29.80;;;;;;;;;;4953569;28;20027;-72
2021/11/28 10:14:17;;;;;;;83.27;30.67;;;;;;;;;;4953587;28;20033;-73
2021/11/28 10:16:44;;;;;;;84.67;32.70;;;;;;;;;;4953132;28;20023;-73
2021/11/28 10:19:10;;;;;;;71.60;29.60;;;;;;;;;;4954753;28;20031;-73
2021/11/28 10:21:36;;;;;;;86.97;30.13;;;;;;;;;;4954594;28;20031;-72
2021/11/28 10:24:17;;;;;;;93.77;31.37;;;;;;;;;;4954712;28;20027;-73
2021/11/28 10:26:55;;;;;;;82.17;30.17;;;;;;;;;;4953080;28;20035;-71
2021/11/28 10:29:24;;;;;;;83.87;27.97;;;;;;;;;;4953283;28;20027;-73
2021/11/28 10:31:52;;;;;;;92.93;31.50;;;;;;;;;;4953130;29;20054;-73
2021/11/28 10:34:36;;;;;;;80.90;31.07;;;;;;;;;;4953086;28;20412;-71
2021/11/28 10:37:10;;;;;;;77.90;30.70;;;;;;;;;;4953191;28;20110;-73
2021/11/28 10:39:51;;;;;;;81.73;30.10;;;;;;;;;;4954142;28;20356;-73
2021/11/28 10:42:21;;;;;;;77.90;28.73;;;;;;;;;;4954118;28;20031;-73
2021/11/28 10:44:59;;;;;;;84.10;28.97;;;;;;;;;;4953073;28;20027;-73
2021/11/28 10:47:37;;;;;;;76.73;28.93;;;;;;;;;;4954186;28;20170;-73
2021/11/28 10:50:08;;;;;;;80.00;30.03;;;;;;;;;;4954235;28;20034;-72
2021/11/28 10:52:33;;;;;;;81.53;27.83;;;;;;;;;;4952666;28;20388;-72
2021/11/28 10:55:13;;;;;;;100.70;32.73;;;;;;;;;;4952864;28;20035;-72
2021/11/28 10:57:39;;;;;;;82.10;31.63;;;;;;;;;;4953734;29;20515;-73
2021/11/28 11:00:07;;;;;;;81.37;29.30;;;;;;;;;;4952707;28;20023;-73
2021/11/28 11:02:38;;;;;;;88.20;30.20;;;;;;;;;;4952330;28;20420;-72
2021/11/28 11:05:09;;;;;;;98.03;32.93;;;;;;;;;;4952843;28;20526;-73
2021/11/28 11:07:48;;;;;;;91.37;31.93;;;;;;;;;;4953658;28;20019;-73
2021/11/28 11:10:34;;;;;;;89.73;31.47;;;;;;;;;;4952892;28;20048;-72
2021/11/28 11:13:01;;;;;;;83.67;30.67;;;;;;;;;;4954148;28;20027;-73
2021/11/28 11:15:50;;;;;;;87.53;30.80;;;;;;;;;;4953750;28;20045;-72
2021/11/28 11:18:21;;;;;;;92.67;34.43;;;;;;;;;;4951124;29;20116;-74
2021/11/28 11:20:51;;;;;;;98.40;33.90;;;;;;;;;;4953920;28;20034;-73
2021/11/28 11:23:41;;;;;;;86.63;30.57;;;;;;;;;;4951890;29;20027;-72
2021/11/28 11:26:15;;;;;;;100.47;36.03;;;;;;;;;;4952284;28;20023;-71
2021/11/28 11:29:07;;;;;;;103.30;35.23;;;;;;;;;;4952390;29;20031;-73
2021/11/28 11:31:35;;;;;;;94.70;37.10;;;;;;;;;;4954895;28;20526;-72
2021/11/28 11:34:01;;;;;;;109.00;37.67;;;;;;;;;;4952073;28;20136;-73
2021/11/28 11:36:53;;;;;;;103.80;33.47;;;;;;;;;;4951916;29;20399;-72
2021/11/28 11:39:23;;;;;;;103.30;33.80;;;;;;;;;;4951990;29;20051;-72
2021/11/28 11:41:49;;;;;;;95.50;34.17;;;;;;;;;;4953495;28;20197;-72
2021/11/28 11:44:17;;;;;;;103.33;34.53;;;;;;;;;;4953048;28;20492;-73
2021/11/28 11:46:46;;;;;;;105.73;34.73;;;;;;;;;;4951335;28;20481;-73
2021/11/28 11:49:16;;;;;;;101.63;32.90;;;;;;;;;;4951699;28;20058;-74
2021/11/28 11:51:43;;;;;;;82.17;32.60;;;;;;;;;;4952780;28;20106;-72
2021/11/28 11:54:26;;;;;;;93.70;34.07;;;;;;;;;;4951191;28;20035;-74
2021/11/28 11:57:09;;;;;;;94.73;33.27;;;;;;;;;;4952162;29;20031;-72
2021/11/28 11:59:53;;;;;;;96.47;32.17;;;;;;;;;;4951508;29;20101;-73
2021/11/28 12:02:31;;;;;;;92.23;29.23;;;;;;;;;;4952867;28;20406;-73
2021/11/28 12:04:58;;;;;;;88.53;31.50;;;;;;;;;;4952902;28;20030;-73
2021/11/28 12:07:47;;;;;;;93.83;30.80;;;;;;;;;;4951478;29;20503;-73
2021/11/28 12:10:36;;;;;;;99.03;33.13;;;;;;;;;;4951290;28;20038;-73
2021/11/28 12:13:06;;;;;;;93.20;31.97;;;;;;;;;;4951115;28;20035;-74
2021/11/28 12:15:37;;;;;;;91.83;29.93;;;;;;;;;;4952358;28;20023;-74
2021/11/28 12:18:04;;;;;;;91.07;30.83;;;;;;;;;;4952462;28;20047;-70
2021/11/28 12:20:48;;;;;;;92.27;31.27;;;;;;;;;;4952592;28;20042;-74
2021/11/28 12:23:43;;;;;;;89.73;29.07;;;;;;;;;;4952359;28;20472;-73
2021/11/28 12:26:30;;;;;;;85.33;28.80;;;;;;;;;;4951140;28;20415;-73
2021/11/28 12:28:59;;;;;;;87.97;30.17;;;;;;;;;;4952607;28;20090;-73
2021/11/28 12:31:26;;;;;;;82.97;28.33;;;;;;;;;;4950955;28;20027;-73
2021/11/28 12:33:52;;;;;;;85.33;30.17;;;;;;;;;;4951318;29;20047;-72
2021/11/28 12:36:36;;;;;;;81.20;26.57;;;;;;;;;;4952488;28;20484;-73
2021/11/28 12:39:23;;;;;;;79.10;27.97;;;;;;;;;;4951592;28;20404;-72
2021/11/28 12:41:52;;;;;;;69.70;23.77;;;;;;;;;;4956113;28;20039;-73
2021/11/28 12:44:26;;;;;;;82.70;26.10;;;;;;;;;;4953381;28;20027;-71
2021/11/28 12:46:55;;;;;;;60.73;21.97;;;;;;;;;;4951268;28;20448;-71
2021/11/28 12:49:28;;;;;;;61.07;19.67;;;;;;;;;;4950519;28;20039;-73
2021/11/28 12:52:16;;;;;;;54.87;19.43;;;;;;;;;;4950874;29;20043;-74
2021/11/28 12:55:01;;;;;;;61.43;20.00;;;;;;;;;;4952281;29;20039;-72
2021/11/28 12:57:27;;;;;;;61.97;20.47;;;;;;;;;;4952141;28;20130;-72
2021/11/28 13:00:17;;;;;;;53.43;17.47;;;;;;;;;;4952062;28;20109;-72
2021/11/28 13:02:49;;;;;;;50.87;18.17;;;;;;;;;;4952196;28;20034;-74
2021/11/28 13:05:28;;;;;;;44.22;15.90;;;;;;;;;;4953045;28;20470;-73
2021/11/28 13:07:55;;;;;;;44.53;15.93;;;;;;;;;;4954977;28;20035;-72
2021/11/28 13:10:29;;;;;;;52.57;18.63;;;;;;;;;;4954765;29;20031;-72
2021/11/28 13:13:19;;;;;;;49.27;15.73;;;;;;;;;;4956105;28;20436;-72
2021/11/28 13:16:04;;;;;;;39.27;14.20;;;;;;;;;;4954524;28;20023;-72
2021/11/28 13:18:36;;;;;;;42.60;16.10;;;;;;;;;;4955861;28;20039;-72
2021/11/28 13:21:06;;;;;;;41.53;14.40;;;;;;;;;;4955809;28;20073;-73
2021/11/28 13:23:37;;;;;;;42.30;14.10;;;;;;;;;;4953768;29;20055;-72
2021/11/28 13:26:03;;;;;;;41.30;13.67;;;;;;;;;;4954440;28;20051;-73
2021/11/28 13:28:33;;;;;;;51.13;17.17;;;;;;;;;;4955253;28;20070;-72
2021/11/28 13:31:04;;;;;;;39.53;14.10;;;;;;;;;;4955313;28;20070;-74
2021/11/28 13:33:33;;;;;;;43.13;14.90;;;;;;;;;;4955323;28;20043;-73
2021/11/28 13:36:01;;;;;;;35.77;12.60;;;;;;;;;;4955373;28;20059;-73
2021/11/28 13:38:44;;;;;;;34.30;12.70;;;;;;;;;;4954832;28;20059;-72
2021/11/28 13:41:25;;;;;;;43.93;14.60;;;;;;;;;;4955078;28;20171;-73
2021/11/28 13:44:07;;;;;;;40.03;13.38;;;;;;;;;;4954127;28;20035;-73
2021/11/28 13:46:41;;;;;;;35.30;14.37;;;;;;;;;;4953847;29;20380;-73
2021/11/28 13:49:15;;;;;;;42.70;13.87;;;;;;;;;;4954770;28;20031;-72
2021/11/28 13:51:56;;;;;;;39.20;14.77;;;;;;;;;;4953579;28;20047;-72
2021/11/28 13:54:29;;;;;;;35.73;13.83;;;;;;;;;;4955013;28;20035;-73
2021/11/28 13:57:02;;;;;;;40.83;13.83;;;;;;;;;;4955098;28;20539;-74
2021/11/28 13:59:34;;;;;;;40.07;13.23;;;;;;;;;;4955797;28;20540;-73
2021/11/28 14:02:05;;;;;;;34.63;14.10;;;;;;;;;;4954933;28;20042;-73
2021/11/28 14:04:30;;;;;;;50.17;17.43;;;;;;;;;;4953009;28;20514;-73
2021/11/28 14:06:56;;;;;;;43.43;16.23;;;;;;;;;;4954528;28;20027;-74
2021/11/28 14:09:22;;;;;;;55.47;18.50;;;;;;;;;;4937400;29;20035;-74
2021/11/28 14:11:49;;;;;;;61.73;19.50;;;;;;;;;;4952997;28;20027;-73
2021/11/28 14:14:17;;;;;;;65.00;21.73;;;;;;;;;;4954890;28;20133;-73
2021/11/28 14:16:50;;;;;;;58.23;18.43;;;;;;;;;;4951932;28;20471;-74
2021/11/28 14:19:37;;;;;;;48.53;17.07;;;;;;;;;;4954532;28;20027;-73
2021/11/28 14:22:21;;;;;;;47.27;15.93;;;;;;;;;;4954562;28;20154;-73
2021/11/28 14:24:48;;;;;;;51.63;16.50;;;;;;;;;;4954037;28;20023;-72
2021/11/28 14:27:15;;;;;;;43.93;15.97;;;;;;;;;;4952538;29;20114;-73
2021/11/28 14:29:42;;;;;;;47.17;16.67;;;;;;;;;;4952577;28;20365;-73
2021/11/28 14:32:08;;;;;;;36.40;14.70;;;;;;;;;;4952792;28;20038;-73